createdAt,value
2023-03-26T00:01:47.201Z,1.90
2023-03-26T00:04:14.965Z,1.63
2023-03-26T00:06:42.699Z,1.80
2023-03-26T00:09:13.811Z,1.80
2023-03-26T00:11:41.670Z,1.87
2023-03-26T00:14:13.768Z,1.97
2023-03-26T00:16:42.716Z,1.70
2023-03-26T00:19:11.319Z,1.43
2023-03-26T00:21:39.054Z,1.40
2023-03-26T00:24:09.504Z,1.43
2023-03-26T00:26:38.894Z,1.60
2023-03-26T00:29:08.350Z,1.50
2023-03-26T00:31:39.782Z,1.40
2023-03-26T00:34:08.444Z,1.33
2023-03-26T00:36:37.238Z,1.17
2023-03-26T00:39:06.297Z,1.60
2023-03-26T00:41:37.031Z,1.10
2023-03-26T00:44:05.125Z,1.10
2023-03-26T00:46:33.118Z,1.10
2023-03-26T00:49:03.854Z,0.90
2023-03-26T00:51:33.314Z,1.00
2023-03-26T00:54:01.498Z,0.90
2023-03-26T00:56:29.372Z,1.20
2023-03-26T00:58:57.750Z,1.10
2023-03-26T01:01:28.944Z,1.03
2023-03-26T01:04:07.265Z,1.17
2023-03-26T01:06:41.908Z,1.30
2023-03-26T01:09:15.836Z,1.63
2023-03-26T01:11:44.186Z,1.73
2023-03-26T01:14:15.485Z,1.70
2023-03-26T01:16:45.910Z,1.73
2023-03-26T01:19:21.141Z,2.00
2023-03-26T01:21:50.268Z,2.10
2023-03-26T01:24:19.322Z,1.80
2023-03-26T01:27:10.941Z,2.00
2023-03-26T01:29:44.988Z,2.10
2023-03-26T01:32:25.304Z,2.20
2023-03-26T01:35:01.522Z,2.60
2023-03-26T01:37:35.836Z,2.70
2023-03-26T01:40:10.919Z,2.43
2023-03-26T01:42:44.505Z,2.47
2023-03-26T01:45:17.374Z,2.13
2023-03-26T01:47:46.161Z,2.17
2023-03-26T01:50:14.097Z,2.13
2023-03-26T01:52:41.876Z,1.77
2023-03-26T01:55:12.688Z,2.13
2023-03-26T01:57:54.165Z,2.20
2023-03-26T02:00:28.352Z,2.10
2023-03-26T02:03:19.657Z,1.90
2023-03-26T02:05:53.680Z,2.43
2023-03-26T02:08:25.608Z,1.90
2023-03-26T02:10:58.498Z,1.77
2023-03-26T02:13:27.262Z,1.97
2023-03-26T02:15:59.939Z,2.00
2023-03-26T02:18:36.176Z,1.80
2023-03-26T02:21:06.282Z,2.10
2023-03-26T02:23:35.809Z,2.30
2023-03-26T02:26:07.446Z,1.97
2023-03-26T02:28:35.219Z,1.90
2023-03-26T02:31:03.466Z,1.90
2023-03-26T02:33:31.921Z,2.17
2023-03-26T02:36:01.825Z,1.87
2023-03-26T02:38:30.364Z,1.80
2023-03-26T02:40:58.077Z,2.20
2023-03-26T02:43:27.145Z,1.80
2023-03-26T02:45:55.536Z,1.77
2023-03-26T02:48:23.655Z,1.93
2023-03-26T02:50:54.462Z,1.87
2023-03-26T02:53:24.075Z,2.17
2023-03-26T02:55:52.237Z,2.30
2023-03-26T02:58:20.145Z,2.00
2023-03-26T03:00:50.862Z,2.33
2023-03-26T03:03:18.666Z,2.10
2023-03-26T03:05:46.386Z,2.00
2023-03-26T03:08:14.264Z,2.47
2023-03-26T03:10:42.387Z,2.70
2023-03-26T03:13:10.282Z,2.40
2023-03-26T03:15:37.990Z,2.50
2023-03-26T03:18:07.598Z,2.57
2023-03-26T03:20:35.769Z,2.37
2023-03-26T03:23:03.493Z,2.67
2023-03-26T03:25:32.474Z,2.63
2023-03-26T03:28:00.173Z,2.80
2023-03-26T03:30:28.080Z,3.00
2023-03-26T03:32:58.448Z,3.10
2023-03-26T03:35:29.591Z,3.13
2023-03-26T03:37:57.603Z,3.50
2023-03-26T03:40:25.462Z,2.70
2023-03-26T03:42:53.259Z,2.00
2023-03-26T03:45:21.022Z,1.97
2023-03-26T03:47:48.857Z,1.70
2023-03-26T03:50:16.650Z,1.40
2023-03-26T03:52:45.707Z,1.60
2023-03-26T03:55:14.019Z,1.53
2023-03-26T03:57:42.035Z,1.77
2023-03-26T04:00:11.756Z,1.80
2023-03-26T04:02:43.046Z,1.90
2023-03-26T04:05:11.663Z,2.10
2023-03-26T04:07:39.751Z,2.20
2023-03-26T04:10:10.838Z,2.67
2023-03-26T04:12:38.566Z,2.33
2023-03-26T04:15:07.491Z,2.90
2023-03-26T04:17:42.329Z,2.77
2023-03-26T04:20:15.556Z,2.80
2023-03-26T04:22:43.465Z,3.13
2023-03-26T04:25:15.507Z,3.80
2023-03-26T04:27:44.039Z,3.90
2023-03-26T04:30:15.461Z,3.77
2023-03-26T04:32:44.707Z,4.20
2023-03-26T04:35:14.278Z,4.37
2023-03-26T04:37:44.433Z,3.80
2023-03-26T04:40:19.405Z,3.57
2023-03-26T04:42:47.213Z,3.47
2023-03-26T04:45:16.225Z,3.43
2023-03-26T04:47:46.371Z,3.27
2023-03-26T04:50:14.293Z,3.30
2023-03-26T04:52:43.955Z,3.30
2023-03-26T04:55:22.052Z,3.00
2023-03-26T04:57:54.671Z,3.50
2023-03-26T05:00:22.603Z,3.30
2023-03-26T05:02:51.027Z,3.30
2023-03-26T05:05:18.941Z,2.77
2023-03-26T05:07:46.985Z,2.43
2023-03-26T05:10:17.787Z,2.63
2023-03-26T05:12:45.615Z,2.83
2023-03-26T05:15:14.422Z,2.60
2023-03-26T05:17:42.469Z,2.73
2023-03-26T05:20:20.916Z,2.70
2023-03-26T05:22:49.897Z,2.73
2023-03-26T05:25:21.393Z,2.93
2023-03-26T05:27:49.570Z,2.80
2023-03-26T05:30:19.851Z,3.20
2023-03-26T05:32:49.472Z,3.17
2023-03-26T05:35:17.904Z,3.20
2023-03-26T05:37:46.589Z,3.30
2023-03-26T05:40:17.182Z,3.43
2023-03-26T05:42:46.473Z,4.10
2023-03-26T05:45:16.132Z,4.30
2023-03-26T05:47:44.148Z,4.10
2023-03-26T05:50:12.679Z,3.70
2023-03-26T05:52:40.442Z,4.53
2023-03-26T05:55:09.049Z,4.57
2023-03-26T05:57:37.633Z,4.63
2023-03-26T06:00:11.080Z,5.00
2023-03-26T06:02:38.977Z,5.40
2023-03-26T06:05:07.996Z,5.07
2023-03-26T06:07:35.727Z,4.57
2023-03-26T06:10:03.570Z,5.23
2023-03-26T06:12:31.306Z,4.57
2023-03-26T06:14:59.012Z,4.53
2023-03-26T06:17:28.071Z,4.30
2023-03-26T06:19:55.779Z,4.20
2023-03-26T06:22:23.500Z,3.90
2023-03-26T06:24:52.802Z,3.80
2023-03-26T06:27:20.605Z,4.20
2023-03-26T06:29:49.331Z,4.50
2023-03-26T06:32:19.997Z,4.07
2023-03-26T06:34:49.483Z,4.17
2023-03-26T06:37:17.604Z,4.13
2023-03-26T06:39:45.951Z,3.73
2023-03-26T06:42:13.715Z,4.07
2023-03-26T06:44:41.447Z,3.20
2023-03-26T06:47:09.210Z,3.57
2023-03-26T06:49:38.102Z,3.50
2023-03-26T06:52:07.274Z,2.90
2023-03-26T06:54:35.010Z,2.53
2023-03-26T06:57:02.775Z,2.67
2023-03-26T06:59:30.724Z,2.37
2023-03-26T07:01:58.527Z,2.50
2023-03-26T07:04:26.391Z,2.23
2023-03-26T07:06:54.186Z,1.90
2023-03-26T07:09:23.365Z,2.20
2023-03-26T07:11:51.321Z,2.27
2023-03-26T07:14:19.047Z,2.23
2023-03-26T07:16:46.785Z,2.30
2023-03-26T07:19:14.521Z,2.03
2023-03-26T07:21:42.871Z,1.90
2023-03-26T07:24:12.045Z,2.10
2023-03-26T07:26:51.692Z,2.27
2023-03-26T07:29:26.031Z,3.10
2023-03-26T07:32:00.502Z,2.70
2023-03-26T07:34:40.000Z,3.00
2023-03-26T07:37:17.367Z,2.30
2023-03-26T07:39:53.211Z,2.40
2023-03-26T07:42:35.093Z,2.80
2023-03-26T07:45:11.993Z,3.87
2023-03-26T07:47:42.902Z,2.60
2023-03-26T07:50:18.306Z,1.90
2023-03-26T07:52:47.336Z,2.00
2023-03-26T07:55:17.250Z,1.63
2023-03-26T07:57:56.066Z,2.20
2023-03-26T08:00:27.605Z,2.13
2023-03-26T08:03:23.428Z,1.60
2023-03-26T08:05:59.539Z,2.77
2023-03-26T08:08:37.594Z,2.70
2023-03-26T08:11:15.991Z,2.50
2023-03-26T08:13:57.680Z,1.70
2023-03-26T08:16:32.337Z,3.10
2023-03-26T08:19:11.417Z,3.57
2023-03-26T08:21:45.736Z,1.83
2023-03-26T08:24:22.117Z,2.80
2023-03-26T08:26:57.515Z,1.97
2023-03-26T08:29:37.622Z,1.97
2023-03-26T08:32:06.224Z,1.63
2023-03-26T08:34:34.071Z,1.80
2023-03-26T08:37:02.486Z,1.90
2023-03-26T08:39:30.431Z,2.00
2023-03-26T08:42:33.371Z,1.77
2023-03-26T08:45:47.462Z,2.77
2023-03-26T08:48:38.882Z,4.23
2023-03-26T08:51:42.844Z,2.30
2023-03-26T08:54:53.672Z,2.00
2023-03-26T08:57:46.244Z,3.37
2023-03-26T09:00:39.301Z,2.00
2023-03-26T09:03:33.357Z,1.87
2023-03-26T09:06:26.655Z,1.63
2023-03-26T09:09:20.133Z,1.80
2023-03-26T09:12:25.396Z,1.70
2023-03-26T09:15:26.350Z,2.03
2023-03-26T09:18:31.481Z,1.60
2023-03-26T09:21:33.184Z,2.07
2023-03-26T09:24:43.759Z,1.67
2023-03-26T09:27:40.995Z,1.70
2023-03-26T09:30:29.181Z,2.10
2023-03-26T09:33:28.934Z,2.03
2023-03-26T09:36:19.397Z,1.87
2023-03-26T09:38:53.895Z,1.83
2023-03-26T09:41:34.161Z,1.90
2023-03-26T09:44:33.056Z,1.73
2023-03-26T09:47:42.826Z,1.70
2023-03-26T09:50:23.733Z,1.40
2023-03-26T09:53:05.812Z,1.83
2023-03-26T09:55:44.800Z,1.80
2023-03-26T09:58:42.460Z,1.80
2023-03-26T10:01:15.440Z,7.60
2023-03-26T10:03:56.440Z,2.40
2023-03-26T10:06:38.090Z,1.90
2023-03-26T10:09:24.546Z,1.30
2023-03-26T10:12:11.911Z,1.60
2023-03-26T10:14:44.521Z,1.67
2023-03-26T10:17:31.913Z,1.50
2023-03-26T10:20:27.638Z,1.60
2023-03-26T10:23:07.883Z,1.40
2023-03-26T10:25:52.059Z,2.43
2023-03-26T10:28:36.867Z,2.03
2023-03-26T10:31:40.897Z,1.30
2023-03-26T10:34:28.823Z,2.43
2023-03-26T10:37:07.713Z,1.20
2023-03-26T10:39:56.162Z,2.27
2023-03-26T10:42:42.580Z,1.33
2023-03-26T10:45:30.841Z,3.77
2023-03-26T10:48:23.696Z,2.00
2023-03-26T10:50:58.584Z,3.00
2023-03-26T10:53:35.876Z,1.40
2023-03-26T10:56:13.556Z,1.13
2023-03-26T10:58:49.574Z,1.73
2023-03-26T11:01:31.242Z,1.80
2023-03-26T11:04:08.970Z,1.33
2023-03-26T11:06:42.797Z,2.10
2023-03-26T11:09:21.815Z,1.37
2023-03-26T11:11:56.971Z,1.37
2023-03-26T11:14:34.998Z,4.17
2023-03-26T11:17:40.230Z,2.00
2023-03-26T11:20:10.849Z,1.27
2023-03-26T11:22:49.622Z,1.50
2023-03-26T11:25:32.715Z,1.47
2023-03-26T11:28:17.800Z,1.70
2023-03-26T11:30:54.962Z,1.80
2023-03-26T11:33:32.789Z,1.50
2023-03-26T11:36:04.995Z,2.10
2023-03-26T11:38:37.557Z,1.50
2023-03-26T11:41:13.236Z,1.30
2023-03-26T11:43:41.228Z,1.33
2023-03-26T11:46:13.963Z,1.53
2023-03-26T11:48:44.954Z,1.30
2023-03-26T11:51:17.552Z,1.40
2023-03-26T11:53:46.751Z,1.17
2023-03-26T11:56:19.835Z,1.37
2023-03-26T11:58:52.600Z,1.30
2023-03-26T12:01:30.385Z,1.33
2023-03-26T12:04:03.834Z,1.20
2023-03-26T12:06:32.986Z,1.33
2023-03-26T12:09:00.818Z,1.13
2023-03-26T12:11:35.457Z,3.90
2023-03-26T12:14:05.806Z,1.80
2023-03-26T12:16:36.248Z,1.77
2023-03-26T12:19:08.108Z,2.13
2023-03-26T12:21:46.076Z,1.77
2023-03-26T12:24:28.091Z,8.07
2023-03-26T12:27:01.940Z,1.83
2023-03-26T12:29:34.564Z,1.40
2023-03-26T12:32:08.662Z,1.73
2023-03-26T12:34:39.471Z,4.77
2023-03-26T12:37:09.707Z,1.70
2023-03-26T12:40:08.956Z,2.72
2023-03-26T12:44:47.650Z,2.10
2023-03-26T12:45:22.370Z,6.32
2023-03-26T12:47:58.716Z,5.10
2023-03-26T12:50:42.723Z,2.00
2023-03-26T12:53:29.559Z,1.33
2023-03-26T12:56:01.704Z,1.25
2023-03-26T12:58:47.964Z,1.30
2023-03-26T13:01:23.001Z,1.55
2023-03-26T13:04:06.931Z,2.50
2023-03-26T13:06:48.467Z,1.30
2023-03-26T13:10:01.901Z,1.37
2023-03-26T13:12:40.381Z,1.60
2023-03-26T13:15:18.890Z,1.55
2023-03-26T13:17:59.783Z,2.08
2023-03-26T13:20:35.364Z,2.50
2023-03-26T13:23:14.541Z,1.38
2023-03-26T13:25:51.457Z,1.55
2023-03-26T13:28:30.879Z,1.40
2023-03-26T13:31:06.660Z,1.10
2023-03-26T13:33:48.704Z,1.33
2023-03-26T13:36:24.384Z,1.17
2023-03-26T13:39:04.908Z,1.48
2023-03-26T13:41:45.336Z,1.33
2023-03-26T13:44:24.023Z,2.10
2023-03-26T13:46:54.189Z,1.20
2023-03-26T13:49:36.921Z,1.48
2023-03-26T13:52:11.447Z,1.20
2023-03-26T13:54:45.370Z,1.33
2023-03-26T13:57:20.122Z,1.50
2023-03-26T13:59:52.617Z,1.45
2023-03-26T14:02:28.565Z,2.40
2023-03-26T14:05:01.244Z,1.63
2023-03-26T14:07:35.765Z,1.00
2023-03-26T14:10:09.592Z,1.30
2023-03-26T14:12:51.243Z,1.20
2023-03-26T14:15:24.541Z,1.40
2023-03-26T14:17:59.590Z,1.20
2023-03-26T14:20:56.316Z,2.00
2023-03-26T14:24:03.875Z,1.40
2023-03-26T14:26:51.867Z,1.57
2023-03-26T14:29:31.043Z,2.03
2023-03-26T14:32:13.722Z,1.30
2023-03-26T14:34:54.847Z,1.43
2023-03-26T14:37:38.005Z,2.03
2023-03-26T14:40:29.783Z,2.67
2023-03-26T14:43:19.449Z,1.45
2023-03-26T14:45:56.946Z,1.70
2023-03-26T14:48:58.246Z,1.63
2023-03-26T14:51:48.853Z,1.40
2023-03-26T14:54:20.780Z,1.90
2023-03-26T14:57:23.918Z,1.37
2023-03-26T15:00:25.802Z,2.00
2023-03-26T15:03:23.449Z,1.33
2023-03-26T15:06:27.604Z,1.40
2023-03-26T15:09:32.778Z,1.47
2023-03-26T15:12:12.575Z,2.00
2023-03-26T15:15:31.617Z,1.50
2023-03-26T15:18:45.181Z,1.60
2023-03-26T15:21:32.715Z,1.57
2023-03-26T15:24:22.567Z,1.37
2023-03-26T15:27:26.773Z,1.40
2023-03-26T15:30:24.986Z,1.27
2023-03-26T15:33:18.575Z,1.40
2023-03-26T15:36:14.843Z,1.43
2023-03-26T15:39:09.457Z,1.60
2023-03-26T15:41:44.382Z,1.50
2023-03-26T15:44:27.046Z,1.40
2023-03-26T15:47:02.967Z,1.30
2023-03-26T15:49:41.140Z,1.47
2023-03-26T15:52:20.896Z,1.60
2023-03-26T15:54:57.454Z,1.43
2023-03-26T15:57:30.565Z,1.50
2023-03-26T16:00:22.487Z,1.67
2023-03-26T16:03:16.493Z,1.50
2023-03-26T16:06:11.397Z,1.60
2023-03-26T16:08:46.898Z,1.40
2023-03-26T16:11:15.494Z,1.53
2023-03-26T16:13:50.583Z,1.40
2023-03-26T16:16:26.091Z,1.33
2023-03-26T16:19:00.449Z,1.67
2023-03-26T16:21:44.640Z,1.53
2023-03-26T16:24:27.566Z,1.50
2023-03-26T16:27:27.390Z,1.53
2023-03-26T16:30:27.853Z,1.33
2023-03-26T16:32:58.727Z,1.23
2023-03-26T16:35:54.092Z,1.53
2023-03-26T16:38:27.441Z,1.57
2023-03-26T16:41:03.420Z,1.50
2023-03-26T16:44:10.423Z,1.70
2023-03-26T16:46:47.569Z,1.50
2023-03-26T16:49:27.354Z,1.67
2023-03-26T16:52:06.759Z,1.80
2023-03-26T16:54:46.756Z,1.53
2023-03-26T16:57:23.722Z,1.40
2023-03-26T17:00:23.365Z,1.63
2023-03-26T17:02:59.868Z,1.30
2023-03-26T17:05:37.027Z,1.50
2023-03-26T17:08:13.470Z,1.57
2023-03-26T17:10:54.298Z,2.20
2023-03-26T17:13:28.019Z,2.17
2023-03-26T17:16:05.775Z,2.60
2023-03-26T17:18:43.780Z,1.70
2023-03-26T17:21:16.951Z,2.30
2023-03-26T17:24:02.868Z,2.57
2023-03-26T17:26:43.241Z,2.00
2023-03-26T17:29:24.379Z,2.13
2023-03-26T17:32:00.143Z,2.27
2023-03-26T17:34:46.760Z,2.13
2023-03-26T17:37:32.432Z,1.90
2023-03-26T17:40:27.950Z,2.03
2023-03-26T17:43:04.627Z,2.27
2023-03-26T17:45:35.887Z,2.30
2023-03-26T17:48:09.176Z,2.57
2023-03-26T17:50:46.813Z,2.60
2023-03-26T17:53:20.660Z,2.70
2023-03-26T17:55:51.650Z,2.70
2023-03-26T17:58:29.882Z,2.70
2023-03-26T18:01:08.210Z,2.73
2023-03-26T18:03:40.742Z,2.57
2023-03-26T18:06:11.958Z,2.63
2023-03-26T18:08:53.603Z,2.80
2023-03-26T18:11:37.936Z,2.53
2023-03-26T18:14:31.008Z,2.20
2023-03-26T18:17:01.268Z,2.40
2023-03-26T18:19:29.294Z,2.67
2023-03-26T18:21:59.095Z,2.40
2023-03-26T18:24:31.395Z,2.00
2023-03-26T18:27:03.070Z,2.70
2023-03-26T18:29:35.394Z,2.60
2023-03-26T18:32:04.850Z,2.20
2023-03-26T18:34:34.484Z,2.20
2023-03-26T18:37:15.578Z,2.73
2023-03-26T18:39:45.389Z,2.73
2023-03-26T18:42:24.356Z,2.17
2023-03-26T18:44:59.829Z,2.37
2023-03-26T18:47:30.759Z,2.00
2023-03-26T18:49:59.622Z,2.00
2023-03-26T18:52:29.969Z,2.07
2023-03-26T18:54:59.384Z,2.20
2023-03-26T18:57:29.248Z,2.13
2023-03-26T19:00:15.631Z,2.23
2023-03-26T19:02:43.778Z,2.10
2023-03-26T19:05:15.765Z,2.50
2023-03-26T19:07:45.829Z,2.33
2023-03-26T19:10:18.617Z,2.40
2023-03-26T19:12:47.260Z,2.07
2023-03-26T19:15:17.838Z,2.13
2023-03-26T19:17:47.748Z,2.10
2023-03-26T19:20:19.485Z,2.20
2023-03-26T19:22:48.179Z,1.80
2023-03-26T19:25:22.696Z,2.00
2023-03-26T19:27:51.679Z,2.47
2023-03-26T19:30:29.052Z,2.10
2023-03-26T19:33:13.105Z,2.20
2023-03-26T19:35:42.702Z,2.40
2023-03-26T19:38:25.574Z,2.77
2023-03-26T19:40:55.556Z,2.10
2023-03-26T19:43:24.817Z,2.60
2023-03-26T19:46:00.581Z,2.37
2023-03-26T19:48:45.969Z,2.27
2023-03-26T19:51:21.018Z,2.20
2023-03-26T19:53:52.993Z,2.40
2023-03-26T19:56:21.978Z,2.23
2023-03-26T19:58:50.078Z,2.20
2023-03-26T20:01:20.969Z,2.20
2023-03-26T20:03:52.718Z,2.83
2023-03-26T20:06:30.801Z,2.67
2023-03-26T20:09:06.178Z,3.23
2023-03-26T20:11:38.737Z,3.60
2023-03-26T20:14:13.828Z,3.03
2023-03-26T20:16:45.218Z,2.90
2023-03-26T20:19:14.278Z,2.47
2023-03-26T20:21:43.022Z,2.67
2023-03-26T20:24:14.695Z,2.50
2023-03-26T20:26:42.638Z,2.40
2023-03-26T20:29:11.702Z,2.30
2023-03-26T20:31:41.520Z,2.43
2023-03-26T20:34:17.177Z,2.53
2023-03-26T20:36:45.476Z,2.70
2023-03-26T20:39:13.606Z,2.23
2023-03-26T20:41:47.101Z,2.37
2023-03-26T20:44:17.648Z,2.43
2023-03-26T20:46:46.790Z,2.50
2023-03-26T20:49:17.733Z,2.40
2023-03-26T20:51:46.684Z,2.70
2023-03-26T20:54:17.705Z,2.47
2023-03-26T20:56:47.607Z,2.60
2023-03-26T20:59:21.640Z,2.63
2023-03-26T21:01:50.976Z,2.50
2023-03-26T21:04:20.787Z,2.30
2023-03-26T21:06:49.245Z,2.23
2023-03-26T21:09:23.470Z,2.53
2023-03-26T21:11:56.712Z,2.60
2023-03-26T21:14:27.926Z,3.23
2023-03-26T21:16:56.587Z,2.60
2023-03-26T21:19:26.340Z,3.20
2023-03-26T21:22:01.623Z,3.17
2023-03-26T21:24:43.475Z,3.43
2023-03-26T21:27:19.130Z,2.80
2023-03-26T21:29:47.640Z,3.47
2023-03-26T21:32:15.993Z,3.87
2023-03-26T21:34:55.497Z,3.77
2023-03-26T21:37:26.483Z,3.40
2023-03-26T21:39:54.588Z,2.80
2023-03-26T21:42:26.771Z,3.47
2023-03-26T21:44:55.140Z,3.13
2023-03-26T21:47:23.286Z,2.87
2023-03-26T21:49:54.643Z,3.00
2023-03-26T21:52:23.920Z,2.63
2023-03-26T21:54:52.385Z,3.40
2023-03-26T21:57:37.037Z,3.20
2023-03-26T22:00:14.908Z,2.80
2023-03-26T22:02:54.411Z,2.57
2023-03-26T22:05:31.109Z,3.07
2023-03-26T22:08:02.089Z,3.00
2023-03-26T22:10:30.845Z,2.80
2023-03-26T22:12:59.002Z,3.10
2023-03-26T22:15:30.406Z,2.63
2023-03-26T22:18:01.761Z,2.53
2023-03-26T22:20:30.843Z,2.60
2023-03-26T22:22:59.676Z,3.07
2023-03-26T22:25:27.550Z,2.93
2023-03-26T22:27:57.308Z,2.73
2023-03-26T22:30:25.644Z,2.57
2023-03-26T22:32:53.468Z,2.97
2023-03-26T22:35:21.710Z,2.87
2023-03-26T22:37:51.353Z,2.50
2023-03-26T22:40:20.485Z,3.07
2023-03-26T22:42:48.203Z,2.50
2023-03-26T22:45:17.134Z,2.80
2023-03-26T22:47:44.973Z,2.20
2023-03-26T22:50:13.001Z,2.73
2023-03-26T22:52:41.492Z,2.77
2023-03-26T22:55:11.984Z,2.70
2023-03-26T22:57:41.361Z,2.70
2023-03-26T23:00:16.152Z,2.53
2023-03-26T23:02:45.758Z,2.23
2023-03-26T23:05:14.160Z,2.77
2023-03-26T23:07:42.347Z,2.50
2023-03-26T23:10:12.299Z,2.30
2023-03-26T23:12:41.363Z,2.87
2023-03-26T23:15:10.646Z,2.70
2023-03-26T23:17:39.245Z,2.37
2023-03-26T23:20:14.848Z,2.13
2023-03-26T23:22:43.624Z,2.63
2023-03-26T23:25:13.010Z,2.70
2023-03-26T23:27:41.311Z,2.73
2023-03-26T23:30:11.116Z,2.77
2023-03-26T23:32:38.983Z,2.70
2023-03-26T23:35:07.680Z,2.47
2023-03-26T23:37:38.764Z,2.90
2023-03-26T23:40:09.768Z,2.83
2023-03-26T23:42:38.910Z,2.77
2023-03-26T23:45:08.534Z,2.87
2023-03-26T23:47:37.263Z,2.67
2023-03-26T23:50:06.588Z,2.30
2023-03-26T23:52:34.378Z,2.47
2023-03-26T23:55:02.115Z,2.47
2023-03-26T23:57:30.457Z,2.50
2023-03-26T23:59:59.531Z,2.40
